createdAt,value
2022-09-30T00:00:10.071Z,19.60
2022-09-30T00:05:10.029Z,19.63
2022-09-30T00:10:08.367Z,19.45
2022-09-30T00:15:07.161Z,19.35
2022-09-30T00:20:06.019Z,19.24
2022-09-30T00:25:05.360Z,19.13
2022-09-30T00:30:04.462Z,19.26
2022-09-30T00:35:05.336Z,18.91
2022-09-30T00:40:04.227Z,18.84
2022-09-30T00:45:05.504Z,18.92
2022-09-30T00:50:29.000Z,19.00
2022-09-30T00:55:32.272Z,18.98
2022-09-30T01:00:31.527Z,18.86
2022-09-30T01:05:32.090Z,18.68
2022-09-30T01:10:31.278Z,18.69
2022-09-30T01:15:41.421Z,18.87
2022-09-30T01:21:07.582Z,18.95
2022-09-30T01:27:03.149Z,18.90
2022-09-30T01:32:09.811Z,18.61
2022-09-30T01:37:09.546Z,18.75
2022-09-30T01:42:20.147Z,18.72
2022-09-30T01:47:27.741Z,18.71
2022-09-30T01:52:35.979Z,18.71
2022-09-30T01:58:03.057Z,18.66
2022-09-30T02:03:16.779Z,18.57
2022-09-30T02:08:46.382Z,18.45
2022-09-30T02:14:11.620Z,18.61
2022-09-30T02:19:16.648Z,18.40
2022-09-30T02:24:16.676Z,18.40
2022-09-30T02:29:35.782Z,18.26
2022-09-30T02:34:39.506Z,18.19
2022-09-30T02:39:49.902Z,18.48
2022-09-30T02:44:53.311Z,18.33
2022-09-30T02:50:23.192Z,18.10
2022-09-30T02:55:49.859Z,18.13
2022-09-30T03:00:48.905Z,17.98
2022-09-30T03:05:49.273Z,17.95
2022-09-30T03:10:51.030Z,17.97
2022-09-30T03:16:14.027Z,17.98
2022-09-30T03:21:17.388Z,17.97
2022-09-30T03:26:25.121Z,17.69
2022-09-30T03:31:45.012Z,17.90
2022-09-30T03:37:04.379Z,17.83
2022-09-30T03:42:23.163Z,17.72
2022-09-30T03:47:21.514Z,17.88
2022-09-30T03:52:22.078Z,17.80
2022-09-30T03:57:21.774Z,17.83
2022-09-30T04:02:21.332Z,17.73
2022-09-30T04:07:25.226Z,17.73
2022-09-30T04:12:26.124Z,17.60
2022-09-30T04:17:27.101Z,17.68
2022-09-30T04:22:29.072Z,17.55
2022-09-30T04:27:27.618Z,17.59
2022-09-30T04:32:29.178Z,17.34
2022-09-30T04:37:29.172Z,17.41
2022-09-30T04:42:27.921Z,17.42
2022-09-30T04:47:26.678Z,17.48
2022-09-30T04:52:24.332Z,17.69
2022-09-30T04:57:32.055Z,17.55
2022-09-30T05:02:40.447Z,17.78
2022-09-30T05:07:39.162Z,17.83
2022-09-30T05:12:38.800Z,17.67
2022-09-30T05:17:36.915Z,17.88
2022-09-30T05:22:34.797Z,17.91
2022-09-30T05:27:36.029Z,18.14
2022-09-30T05:32:45.315Z,17.98
2022-09-30T05:37:44.718Z,18.18
2022-09-30T05:42:47.452Z,18.16
2022-09-30T05:47:52.043Z,18.06
2022-09-30T05:52:51.691Z,18.20
2022-09-30T05:57:50.587Z,18.33
2022-09-30T06:02:51.881Z,18.57
2022-09-30T06:07:52.655Z,18.80
2022-09-30T06:12:53.675Z,18.86
2022-09-30T06:17:54.552Z,18.90
2022-09-30T06:22:53.345Z,19.00
2022-09-30T06:27:51.795Z,19.22
2022-09-30T06:32:53.516Z,19.22
2022-09-30T06:37:54.646Z,19.28
2022-09-30T06:42:52.365Z,19.67
2022-09-30T06:47:59.759Z,19.78
2022-09-30T06:53:03.146Z,19.92
2022-09-30T06:58:02.518Z,19.75
2022-09-30T07:03:18.461Z,19.97
2022-09-30T07:08:18.772Z,20.10
2022-09-30T07:13:17.265Z,20.23
2022-09-30T07:18:20.697Z,20.48
2022-09-30T07:23:22.194Z,20.75
2022-09-30T07:28:28.231Z,20.86
2022-09-30T07:33:31.403Z,21.10
2022-09-30T07:38:34.105Z,21.34
2022-09-30T07:43:44.209Z,21.65
2022-09-30T07:48:45.966Z,21.81
2022-09-30T07:53:51.442Z,21.92
2022-09-30T07:58:50.135Z,21.84
2022-09-30T08:03:50.969Z,21.92
2022-09-30T08:08:52.164Z,22.08
2022-09-30T08:13:55.888Z,22.30
2022-09-30T08:18:58.662Z,22.47
2022-09-30T08:23:58.154Z,22.65
2022-09-30T08:28:56.461Z,22.89
2022-09-30T08:33:54.574Z,22.96
2022-09-30T08:38:55.221Z,23.09
2022-09-30T08:43:59.335Z,23.35
2022-09-30T08:49:19.179Z,23.50
2022-09-30T08:54:28.744Z,23.52
2022-09-30T08:59:35.199Z,23.76
2022-09-30T09:04:33.617Z,23.80
2022-09-30T09:09:55.161Z,24.06
2022-09-30T09:15:11.928Z,24.36
2022-09-30T09:20:20.387Z,24.49
2022-09-30T09:25:29.669Z,24.63
2022-09-30T09:30:37.190Z,25.01
2022-09-30T09:36:00.479Z,25.18
2022-09-30T09:41:11.917Z,25.35
2022-09-30T09:46:17.933Z,25.39
2022-09-30T09:51:44.137Z,25.26
2022-09-30T09:56:43.679Z,25.40
2022-09-30T10:01:52.417Z,25.58
2022-09-30T10:07:35.876Z,25.91
2022-09-30T10:12:34.265Z,25.94
2022-09-30T10:17:38.143Z,25.87
2022-09-30T10:22:36.887Z,25.93
2022-09-30T10:27:36.595Z,26.00
2022-09-30T10:32:44.966Z,26.24
2022-09-30T10:37:54.324Z,26.04
2022-09-30T10:42:52.621Z,26.26
2022-09-30T10:47:53.131Z,26.40
2022-09-30T10:52:56.676Z,26.41
2022-09-30T10:58:09.482Z,26.57
2022-09-30T11:03:10.174Z,26.76
2022-09-30T11:08:33.515Z,26.97
2022-09-30T11:13:46.769Z,27.20
2022-09-30T11:18:55.361Z,27.25
2022-09-30T11:24:15.949Z,27.33
2022-09-30T11:29:48.735Z,27.42
2022-09-30T11:35:08.632Z,27.39
2022-09-30T11:46:31.776Z,27.44
2022-09-30T11:51:52.914Z,27.66
2022-09-30T11:57:07.954Z,27.88
2022-09-30T12:02:35.320Z,27.75
2022-09-30T12:07:50.774Z,28.09
2022-09-30T12:12:53.786Z,28.14
2022-09-30T12:17:59.438Z,28.02
2022-09-30T12:23:42.462Z,28.39
2022-09-30T12:29:37.529Z,28.41
2022-09-30T12:34:49.398Z,28.69
2022-09-30T12:39:53.844Z,28.82
2022-09-30T12:45:37.202Z,28.70
2022-09-30T12:50:53.404Z,28.77
2022-09-30T12:55:52.545Z,29.01
2022-09-30T13:01:05.890Z,29.12
2022-09-30T13:06:08.323Z,29.18
2022-09-30T13:11:06.624Z,29.37
2022-09-30T13:16:07.676Z,29.15
2022-09-30T13:21:05.448Z,29.40
2022-09-30T13:26:08.512Z,29.45
2022-09-30T13:31:16.021Z,29.28
2022-09-30T13:36:26.460Z,29.52
2022-09-30T13:41:26.097Z,29.60
2022-09-30T13:46:29.972Z,29.60
2022-09-30T13:51:32.774Z,29.88
2022-09-30T13:56:34.657Z,30.21
2022-09-30T14:01:48.613Z,30.29
2022-09-30T14:07:26.780Z,30.52
2022-09-30T14:12:32.014Z,31.53
2022-09-30T14:17:39.470Z,31.63
2022-09-30T14:22:41.142Z,30.84
2022-09-30T14:27:53.747Z,29.97
2022-09-30T14:33:03.162Z,29.39
2022-09-30T14:38:02.651Z,29.22
2022-09-30T14:43:05.123Z,28.89
2022-09-30T14:48:08.825Z,28.74
2022-09-30T14:53:06.862Z,28.70
2022-09-30T14:58:23.488Z,28.71
2022-09-30T15:03:24.157Z,28.51
2022-09-30T15:08:22.179Z,28.37
2022-09-30T15:13:25.139Z,28.33
2022-09-30T15:18:32.549Z,28.10
2022-09-30T15:24:01.703Z,27.99
2022-09-30T15:29:14.524Z,27.79
2022-09-30T15:34:23.246Z,27.64
2022-09-30T15:39:49.715Z,27.34
2022-09-30T15:44:48.270Z,27.27
2022-09-30T15:49:48.922Z,27.30
2022-09-30T15:54:47.219Z,26.96
2022-09-30T16:00:02.316Z,26.76
2022-09-30T16:05:03.046Z,26.63
2022-09-30T16:10:19.585Z,26.63
2022-09-30T16:15:19.590Z,26.44
2022-09-30T16:20:54.135Z,26.29
2022-09-30T16:26:24.503Z,26.30
2022-09-30T16:31:24.497Z,26.06
2022-09-30T16:36:25.530Z,25.90
2022-09-30T16:41:25.633Z,25.92
2022-09-30T16:46:26.385Z,25.76
2022-09-30T16:51:33.225Z,25.73
2022-09-30T16:56:31.768Z,25.36
2022-09-30T17:01:31.136Z,25.22
2022-09-30T17:12:14.962Z,25.02
2022-09-30T17:17:15.505Z,24.78
2022-09-30T17:22:13.646Z,24.64
2022-09-30T17:27:11.514Z,24.45
2022-09-30T17:32:11.491Z,24.36
2022-09-30T17:37:09.487Z,24.20
2022-09-30T17:42:34.419Z,24.14
2022-09-30T17:47:33.272Z,24.18
2022-09-30T17:52:34.389Z,23.94
2022-09-30T17:57:38.668Z,23.90
2022-09-30T18:02:38.950Z,23.86
2022-09-30T18:07:38.152Z,23.78
2022-09-30T18:12:36.511Z,23.65
2022-09-30T18:17:37.352Z,23.58
2022-09-30T18:22:38.370Z,23.60
2022-09-30T18:27:39.368Z,23.40
2022-09-30T18:32:41.456Z,23.20
2022-09-30T18:37:46.002Z,23.18
2022-09-30T18:42:50.150Z,23.24
2022-09-30T18:47:48.732Z,22.93
2022-09-30T18:52:51.061Z,22.82
2022-09-30T18:57:50.520Z,22.91
2022-09-30T19:02:48.331Z,22.64
2022-09-30T19:07:46.859Z,22.70
2022-09-30T19:12:47.697Z,22.67
2022-09-30T19:17:50.488Z,22.79
2022-09-30T19:22:52.078Z,22.42
2022-09-30T19:27:49.790Z,22.67
2022-09-30T19:32:48.031Z,22.57
2022-09-30T19:37:58.668Z,22.37
2022-09-30T19:43:01.144Z,22.47
2022-09-30T19:48:02.174Z,22.14
2022-09-30T19:53:03.263Z,22.07
2022-09-30T19:58:01.987Z,22.13
2022-09-30T20:03:03.398Z,22.10
2022-09-30T20:08:05.086Z,21.84
2022-09-30T20:13:03.684Z,21.85
2022-09-30T20:18:01.932Z,21.71
2022-09-30T20:23:04.824Z,21.90
2022-09-30T20:28:04.913Z,21.55
2022-09-30T20:33:04.547Z,21.62
2022-09-30T20:38:06.316Z,21.40
2022-09-30T20:43:04.664Z,21.32
2022-09-30T20:48:02.912Z,21.36
2022-09-30T20:53:06.163Z,21.18
2022-09-30T20:58:08.178Z,21.09
2022-09-30T21:03:12.751Z,20.89
2022-09-30T21:08:13.706Z,20.79
2022-09-30T21:13:13.834Z,20.73
2022-09-30T21:18:14.973Z,20.54
2022-09-30T21:23:18.492Z,20.35
2022-09-30T21:28:17.266Z,20.31
2022-09-30T21:33:15.405Z,20.13
2022-09-30T21:38:17.286Z,20.20
2022-09-30T21:43:17.314Z,20.16
2022-09-30T21:48:14.721Z,19.99
2022-09-30T21:53:13.089Z,20.14
2022-09-30T21:58:14.415Z,19.95
2022-09-30T22:03:15.955Z,20.10
2022-09-30T22:08:18.160Z,20.11
2022-09-30T22:13:20.669Z,20.02
2022-09-30T22:18:22.578Z,20.04
2022-09-30T22:23:23.290Z,19.94
2022-09-30T22:28:22.653Z,19.71
2022-09-30T22:33:46.066Z,19.54
2022-09-30T22:39:11.261Z,19.78
2022-09-30T22:44:11.292Z,19.69
2022-09-30T22:49:11.994Z,19.60
2022-09-30T22:54:21.328Z,19.59
2022-09-30T22:59:20.479Z,19.52
2022-09-30T23:04:24.837Z,19.34
2022-09-30T23:09:24.398Z,19.28
2022-09-30T23:14:25.540Z,19.25
2022-09-30T23:19:28.195Z,19.28
2022-09-30T23:24:29.123Z,19.20
2022-09-30T23:29:27.333Z,19.15
2022-09-30T23:34:28.171Z,19.01
2022-09-30T23:39:27.028Z,19.09
2022-09-30T23:44:28.689Z,18.80
2022-09-30T23:49:27.945Z,18.82
2022-09-30T23:54:28.563Z,18.59
2022-09-30T23:59:30.399Z,18.79
